Time;durP1;ratioP1;P1;durP2;ratioP2;P2;SDS_P1;SDS_P2;PMS_P1;PMS_P2;Temp;Humidity;BMP_temperature;BMP_pressure;BME280_temperature;BME280_humidity;BME280_pressure;Samples;Min_cycle;Max_cycle;Signal;HPM_P1;HPM_P2
2023/06/10 00:01:50;;;;;;;;;35.67;26.67;;;;;;;;5055073;28;45575;-78
2023/06/10 00:04:16;;;;;;;;;29.67;26.67;;;;;;;;5055888;28;45500;-79
2023/06/10 00:06:43;;;;;;;;;29.33;26.00;;;;;;;;5056488;28;45726;-80
2023/06/10 00:09:10;;;;;;;;;33.67;27.33;;;;;;;;5054069;28;45884;-80
2023/06/10 00:11:36;;;;;;;;;35.33;31.33;;;;;;;;5056219;28;45767;-79
2023/06/10 00:14:01;;;;;;;;;33.67;28.67;;;;;;;;5055003;28;45504;-77
2023/06/10 00:16:28;;;;;;;;;43.00;35.33;;;;;;;;5062633;28;45557;-79
2023/06/10 00:18:55;;;;;;;;;28.67;28.67;;;;;;;;5054787;28;46091;-79
2023/06/10 00:21:21;;;;;;;;;33.67;28.00;;;;;;;;5056959;28;45430;-77
2023/06/10 00:23:46;;;;;;;;;33.33;31.00;;;;;;;;5055642;28;45817;-79
2023/06/10 00:26:11;;;;;;;;;36.67;31.33;;;;;;;;5055510;28;45332;-79
2023/06/10 00:28:36;;;;;;;;;34.67;30.33;;;;;;;;5054448;28;46126;-79
2023/06/10 00:31:02;;;;;;;;;28.00;24.33;;;;;;;;5049912;28;46483;-79
2023/06/10 00:33:28;;;;;;;;;33.00;28.67;;;;;;;;5080009;27;45791;-78
2023/06/10 00:35:53;;;;;;;;;39.67;33.67;;;;;;;;5056260;28;45672;-78
2023/06/10 00:38:18;;;;;;;;;35.33;31.67;;;;;;;;5056304;28;45635;-78
2023/06/10 00:40:44;;;;;;;;;31.00;28.67;;;;;;;;5054147;28;46981;-77
2023/06/10 00:43:09;;;;;;;;;32.33;30.33;;;;;;;;5055350;28;45429;-78
2023/06/10 00:45:35;;;;;;;;;38.00;31.67;;;;;;;;5076685;27;46030;-78
2023/06/10 00:48:01;;;;;;;;;33.00;31.00;;;;;;;;5054863;28;45521;-79
2023/06/10 00:50:26;;;;;;;;;34.67;30.67;;;;;;;;5059298;28;46335;-79
2023/06/10 00:52:53;;;;;;;;;40.67;32.33;;;;;;;;5061080;28;45739;-78
2023/06/10 00:55:18;;;;;;;;;35.67;32.00;;;;;;;;5055409;28;45445;-80
2023/06/10 00:57:45;;;;;;;;;39.33;33.33;;;;;;;;5048101;28;47011;-79
2023/06/10 01:00:12;;;;;;;;;35.33;30.67;;;;;;;;5054285;28;45351;-78
2023/06/10 01:02:37;;;;;;;;;43.67;36.33;;;;;;;;5054765;28;45419;-77
2023/06/10 01:05:03;;;;;;;;;46.00;38.67;;;;;;;;5054244;28;45693;-78
2023/06/10 01:07:33;;;;;;;;;42.67;37.33;;;;;;;;5054298;28;45734;-77
2023/06/10 01:10:04;;;;;;;;;44.67;36.00;;;;;;;;5055885;28;46537;-76
2023/06/10 01:12:50;;;;;;;;;43.33;37.33;;;;;;;;5054648;28;45800;-78
2023/06/10 01:15:16;;;;;;;;;38.33;31.67;;;;;;;;5048425;28;45699;-78
2023/06/10 01:17:54;;;;;;;;;35.33;32.00;;;;;;;;5053731;28;46216;-79
2023/06/10 01:20:19;;;;;;;;;34.33;32.00;;;;;;;;5055741;28;45795;-77
2023/06/10 01:22:45;;;;;;;;;31.33;30.33;;;;;;;;5053527;28;45824;-76
2023/06/10 01:25:11;;;;;;;;;23.00;21.33;;;;;;;;5053362;28;45701;-77
2023/06/10 01:27:39;;;;;;;;;20.33;18.33;;;;;;;;5053209;28;46502;-78
2023/06/10 01:30:08;;;;;;;;;27.00;25.00;;;;;;;;5059931;28;47652;-79
2023/06/10 01:32:42;;;;;;;;;30.00;28.00;;;;;;;;5054640;28;45836;-78
2023/06/10 01:35:09;;;;;;;;;22.00;19.00;;;;;;;;5052042;28;45783;-77
2023/06/10 01:37:36;;;;;;;;;29.67;28.33;;;;;;;;5054698;28;46713;-77
2023/06/10 01:40:05;;;;;;;;;27.67;23.33;;;;;;;;5053271;28;46268;-80
2023/06/10 01:42:31;;;;;;;;;26.00;23.67;;;;;;;;5054066;28;45482;-78
2023/06/10 01:44:57;;;;;;;;;26.67;24.00;;;;;;;;5055239;28;45848;-78
2023/06/10 01:47:22;;;;;;;;;27.33;24.33;;;;;;;;5056055;28;45476;-77
2023/06/10 01:49:47;;;;;;;;;24.00;20.33;;;;;;;;5056550;28;45468;-79
2023/06/10 01:52:13;;;;;;;;;18.00;17.33;;;;;;;;5055388;28;45493;-77
2023/06/10 01:54:38;;;;;;;;;24.33;21.00;;;;;;;;5056520;28;45229;-78
2023/06/10 01:57:03;;;;;;;;;20.00;17.00;;;;;;;;5049515;28;45842;-78
2023/06/10 01:59:29;;;;;;;;;18.67;16.67;;;;;;;;5055250;28;46702;-77
2023/06/10 02:01:54;;;;;;;;;13.33;11.33;;;;;;;;5053657;28;45438;-76
2023/06/10 02:04:19;;;;;;;;;11.00;9.00;;;;;;;;5045864;28;46006;-77
2023/06/10 02:06:45;;;;;;;;;9.00;8.67;;;;;;;;5053479;28;46030;-77
2023/06/10 02:09:10;;;;;;;;;14.67;11.00;;;;;;;;5052995;28;47227;-78
2023/06/10 02:11:36;;;;;;;;;12.67;12.00;;;;;;;;5054111;28;45548;-76
2023/06/10 02:14:01;;;;;;;;;9.00;9.00;;;;;;;;5056087;28;45612;-77
2023/06/10 02:16:26;;;;;;;;;12.33;11.33;;;;;;;;5054520;28;45586;-76
2023/06/10 02:18:52;;;;;;;;;11.00;10.00;;;;;;;;5060841;28;45762;-77
2023/06/10 02:21:17;;;;;;;;;8.67;8.67;;;;;;;;5059890;28;45766;-77
2023/06/10 02:23:42;;;;;;;;;11.00;9.67;;;;;;;;5051148;28;45910;-79
2023/06/10 02:26:08;;;;;;;;;14.33;11.00;;;;;;;;5061474;27;45556;-77
2023/06/10 02:28:33;;;;;;;;;12.67;10.33;;;;;;;;5053207;28;45446;-77
2023/06/10 02:30:59;;;;;;;;;12.33;9.67;;;;;;;;5053138;28;45677;-78
2023/06/10 02:33:24;;;;;;;;;7.67;7.67;;;;;;;;5054415;28;45371;-78
2023/06/10 02:35:50;;;;;;;;;9.33;9.00;;;;;;;;5053443;28;45746;-80
2023/06/10 02:38:15;;;;;;;;;8.67;8.67;;;;;;;;5055053;28;45936;-79
2023/06/10 02:40:40;;;;;;;;;11.00;11.00;;;;;;;;5045653;28;46181;-81
2023/06/10 02:43:06;;;;;;;;;10.33;8.33;;;;;;;;5055890;28;45460;-78
2023/06/10 02:45:31;;;;;;;;;8.33;8.33;;;;;;;;5056255;28;45642;-80
2023/06/10 02:47:56;;;;;;;;;9.67;9.67;;;;;;;;5054808;28;45927;-80
2023/06/10 02:50:22;;;;;;;;;13.33;10.33;;;;;;;;5058570;28;45728;-79
2023/06/10 02:52:48;;;;;;;;;9.00;8.67;;;;;;;;5054868;28;45789;-79
2023/06/10 02:55:13;;;;;;;;;14.00;11.33;;;;;;;;5055896;28;45573;-81
2023/06/10 02:57:38;;;;;;;;;9.67;9.67;;;;;;;;5055350;28;45411;-82
2023/06/10 03:00:10;;;;;;;;;10.33;10.33;;;;;;;;5055589;28;45390;-80
2023/06/10 03:02:37;;;;;;;;;10.33;9.00;;;;;;;;5053451;28;45515;-80
2023/06/10 03:05:02;;;;;;;;;11.33;10.67;;;;;;;;5053533;28;47183;-80
2023/06/10 03:07:27;;;;;;;;;8.00;8.00;;;;;;;;5054853;28;45881;-80
2023/06/10 03:09:53;;;;;;;;;11.00;11.00;;;;;;;;5054336;28;45900;-80
2023/06/10 03:12:18;;;;;;;;;12.00;11.33;;;;;;;;5055235;28;45702;-80
2023/06/10 03:14:43;;;;;;;;;11.33;10.33;;;;;;;;5053605;28;45889;-82
2023/06/10 03:17:09;;;;;;;;;14.00;11.33;;;;;;;;5052670;28;48150;-81
2023/06/10 03:19:34;;;;;;;;;15.67;14.67;;;;;;;;5054911;28;45550;-80
2023/06/10 03:22:10;;;;;;;;;14.00;12.33;;;;;;;;5054794;28;45439;-82
2023/06/10 03:24:35;;;;;;;;;20.00;18.00;;;;;;;;5054066;28;45531;-79
2023/06/10 03:27:01;;;;;;;;;18.00;16.00;;;;;;;;5048446;28;45397;-80
2023/06/10 03:29:27;;;;;;;;;24.33;20.33;;;;;;;;5053888;28;45762;-81
2023/06/10 03:31:52;;;;;;;;;19.00;18.67;;;;;;;;5055645;28;45797;-80
2023/06/10 03:34:17;;;;;;;;;20.00;16.67;;;;;;;;5050290;28;47012;-80
2023/06/10 03:36:43;;;;;;;;;23.00;20.33;;;;;;;;5049791;28;48244;-80
2023/06/10 03:39:09;;;;;;;;;27.00;21.00;;;;;;;;5054316;28;45631;-78
2023/06/10 03:41:34;;;;;;;;;27.00;21.00;;;;;;;;5049446;28;45806;-80
2023/06/10 03:44:00;;;;;;;;;22.00;21.33;;;;;;;;5061828;28;45572;-78
2023/06/10 03:46:25;;;;;;;;;27.67;22.67;;;;;;;;5057033;28;47057;-79
2023/06/10 03:48:51;;;;;;;;;24.67;21.67;;;;;;;;5058518;28;45688;-82
2023/06/10 03:51:16;;;;;;;;;23.67;21.67;;;;;;;;5057942;28;45884;-80
2023/06/10 03:53:41;;;;;;;;;21.67;20.00;;;;;;;;5058133;28;45535;-80
2023/06/10 03:56:06;;;;;;;;;27.33;20.33;;;;;;;;5058021;28;45602;-78
2023/06/10 03:58:32;;;;;;;;;21.67;20.00;;;;;;;;5051091;28;45439;-80
2023/06/10 04:00:57;;;;;;;;;24.00;21.67;;;;;;;;5058284;28;45371;-80
2023/06/10 04:03:23;;;;;;;;;28.33;25.33;;;;;;;;5056705;28;45916;-79
2023/06/10 04:05:50;;;;;;;;;26.00;24.00;;;;;;;;5058233;28;45549;-80
2023/06/10 04:08:15;;;;;;;;;35.00;27.67;;;;;;;;5056562;28;45408;-79
2023/06/10 04:10:40;;;;;;;;;23.00;20.67;;;;;;;;5058991;28;45445;-80
2023/06/10 04:13:06;;;;;;;;;27.00;21.67;;;;;;;;5060745;28;45476;-81
2023/06/10 04:15:34;;;;;;;;;42.67;36.67;;;;;;;;5054283;28;45387;-83
2023/06/10 04:18:00;;;;;;;;;23.33;19.67;;;;;;;;5058965;28;45320;-79
2023/06/10 04:20:26;;;;;;;;;25.00;21.33;;;;;;;;5056803;28;45405;-79
2023/06/10 04:22:51;;;;;;;;;26.33;23.67;;;;;;;;5054921;28;45417;-78
2023/06/10 04:25:17;;;;;;;;;24.33;22.67;;;;;;;;5050438;28;46256;-80
2023/06/10 04:27:43;;;;;;;;;21.67;21.00;;;;;;;;5056428;28;45528;-79
2023/06/10 04:30:08;;;;;;;;;19.33;16.67;;;;;;;;5056491;28;45894;-82
2023/06/10 04:32:34;;;;;;;;;17.33;15.33;;;;;;;;5056736;28;45791;-79
2023/06/10 04:34:59;;;;;;;;;17.00;14.67;;;;;;;;5059211;28;45748;-85
2023/06/10 04:37:24;;;;;;;;;18.33;15.33;;;;;;;;5058522;28;45461;-81
2023/06/10 04:39:50;;;;;;;;;17.33;15.33;;;;;;;;5056808;28;45672;-79
2023/06/10 04:42:15;;;;;;;;;11.33;9.33;;;;;;;;5054424;28;47248;-78
2023/06/10 04:44:41;;;;;;;;;8.67;8.67;;;;;;;;5053725;28;48394;-79
2023/06/10 04:47:07;;;;;;;;;11.33;7.00;;;;;;;;5056844;28;45394;-79
2023/06/10 04:49:33;;;;;;;;;8.67;8.67;;;;;;;;5055054;28;45370;-78
2023/06/10 04:51:59;;;;;;;;;12.00;10.00;;;;;;;;5056530;28;45446;-79
2023/06/10 04:54:25;;;;;;;;;8.00;7.50;;;;;;;;5055841;28;45345;-79
2023/06/10 04:56:50;;;;;;;;;9.67;9.33;;;;;;;;5051230;28;45774;-79
2023/06/10 04:59:15;;;;;;;;;7.00;7.00;;;;;;;;5054808;28;45402;-80
2023/06/10 05:01:41;;;;;;;;;7.75;7.75;;;;;;;;5054484;28;46473;-79
2023/06/10 05:04:06;;;;;;;;;8.75;7.00;;;;;;;;5059504;28;48113;-81
2023/06/10 05:06:31;;;;;;;;;7.25;6.00;;;;;;;;5055581;28;46024;-81
2023/06/10 05:08:57;;;;;;;;;9.00;6.00;;;;;;;;5056648;28;45817;-80
2023/06/10 05:11:22;;;;;;;;;7.50;6.00;;;;;;;;5053738;28;45507;-79
2023/06/10 05:13:48;;;;;;;;;7.00;6.00;;;;;;;;5056991;28;46917;-81
2023/06/10 05:16:14;;;;;;;;;4.75;4.75;;;;;;;;5056825;28;45739;-80
2023/06/10 05:18:40;;;;;;;;;8.00;7.25;;;;;;;;5056305;28;45847;-80
2023/06/10 05:21:06;;;;;;;;;6.75;6.50;;;;;;;;5055687;28;45562;-80
2023/06/10 05:23:31;;;;;;;;;8.00;6.75;;;;;;;;5072045;28;46891;-81
2023/06/10 05:25:56;;;;;;;;;8.00;7.00;;;;;;;;5065010;28;45520;-82
2023/06/10 05:28:21;;;;;;;;;8.50;6.50;;;;;;;;5062982;28;45348;-83
2023/06/10 05:30:47;;;;;;;;;8.25;7.00;;;;;;;;5066416;28;45830;-82
2023/06/10 05:33:13;;;;;;;;;8.00;6.75;;;;;;;;5058824;28;46655;-79
2023/06/10 05:35:38;;;;;;;;;6.25;6.25;;;;;;;;5063269;28;45381;-79
2023/06/10 05:38:03;;;;;;;;;12.33;11.00;;;;;;;;5064553;28;45067;-78
2023/06/10 05:40:29;;;;;;;;;7.75;7.00;;;;;;;;5066335;28;45543;-82
2023/06/10 05:42:54;;;;;;;;;7.00;7.00;;;;;;;;5060136;28;46231;-80
2023/06/10 05:45:19;;;;;;;;;7.00;7.00;;;;;;;;5061110;28;45754;-79
2023/06/10 05:47:45;;;;;;;;;5.25;4.25;;;;;;;;5064307;28;45452;-80
2023/06/10 05:50:10;;;;;;;;;5.75;5.75;;;;;;;;5055380;28;45671;-81
2023/06/10 05:52:36;;;;;;;;;8.25;6.50;;;;;;;;5064832;28;45928;-81
2023/06/10 05:55:03;;;;;;;;;5.00;5.00;;;;;;;;5070525;28;45429;-80
2023/06/10 05:57:28;;;;;;;;;7.25;6.25;;;;;;;;5061726;28;45443;-81
2023/06/10 05:59:54;;;;;;;;;9.50;6.75;;;;;;;;5058460;28;47091;-80
2023/06/10 06:02:19;;;;;;;;;8.00;7.00;;;;;;;;5071330;28;45547;-83
2023/06/10 06:04:44;;;;;;;;;6.00;6.00;;;;;;;;5063041;28;45418;-81
2023/06/10 06:07:10;;;;;;;;;7.50;7.00;;;;;;;;5054080;28;45565;-78
2023/06/10 06:09:35;;;;;;;;;5.75;5.25;;;;;;;;5046065;28;45730;-76
2023/06/10 06:12:00;;;;;;;;;7.50;6.75;;;;;;;;5055724;27;45726;-77
2023/06/10 06:14:26;;;;;;;;;5.75;5.75;;;;;;;;5053857;28;45800;-77
2023/06/10 06:16:51;;;;;;;;;6.00;6.00;;;;;;;;5050328;27;45511;-76
2023/06/10 06:19:16;;;;;;;;;5.50;5.50;;;;;;;;5053072;28;45881;-77
2023/06/10 06:21:42;;;;;;;;;12.00;9.00;;;;;;;;5049681;28;46967;-77
2023/06/10 06:24:10;;;;;;;;;4.50;4.50;;;;;;;;5051626;28;45315;-76
2023/06/10 06:26:35;;;;;;;;;6.25;6.00;;;;;;;;5055012;28;45410;-77
2023/06/10 06:29:06;;;;;;;;;7.25;7.25;;;;;;;;5063270;28;45683;-80
2023/06/10 06:31:32;;;;;;;;;7.00;7.00;;;;;;;;5050977;28;46336;-79
2023/06/10 06:33:57;;;;;;;;;8.25;7.00;;;;;;;;5054027;28;45333;-78
2023/06/10 06:36:22;;;;;;;;;9.75;9.00;;;;;;;;5059083;28;45474;-77
2023/06/10 06:38:51;;;;;;;;;6.00;6.00;;;;;;;;5061353;28;45485;-78
2023/06/10 06:41:16;;;;;;;;;7.00;5.75;;;;;;;;5057751;28;45497;-79
2023/06/10 06:43:42;;;;;;;;;8.25;7.00;;;;;;;;5056550;28;45937;-78
2023/06/10 06:46:08;;;;;;;;;5.75;4.25;;;;;;;;5059610;27;45694;-79
2023/06/10 06:48:33;;;;;;;;;5.25;5.25;;;;;;;;5048060;28;45545;-79
2023/06/10 06:50:59;;;;;;;;;5.50;5.50;;;;;;;;5055732;28;48027;-82
2023/06/10 06:53:24;;;;;;;;;6.00;6.00;;;;;;;;5054932;27;45720;-78
2023/06/10 06:55:50;;;;;;;;;6.25;5.50;;;;;;;;5058479;28;45903;-78
2023/06/10 06:58:15;;;;;;;;;7.75;6.00;;;;;;;;5057976;28;45810;-77
2023/06/10 07:00:40;;;;;;;;;6.50;5.50;;;;;;;;5052549;28;45937;-78
2023/06/10 07:03:06;;;;;;;;;5.25;5.25;;;;;;;;5053441;28;45497;-77
2023/06/10 07:05:31;;;;;;;;;6.00;4.25;;;;;;;;5056725;28;45449;-80
2023/06/10 07:07:57;;;;;;;;;6.00;5.00;;;;;;;;5057382;28;45621;-79
2023/06/10 07:10:25;;;;;;;;;7.25;6.25;;;;;;;;5058940;28;46114;-79
2023/06/10 07:12:51;;;;;;;;;5.00;5.00;;;;;;;;5059141;28;45771;-79
2023/06/10 07:15:17;;;;;;;;;6.25;5.25;;;;;;;;5064163;27;45785;-79
2023/06/10 07:17:42;;;;;;;;;8.00;7.25;;;;;;;;5058462;28;45788;-81
2023/06/10 07:20:08;;;;;;;;;5.50;5.50;;;;;;;;5056374;28;47105;-80
2023/06/10 07:22:33;;;;;;;;;6.00;6.00;;;;;;;;5053252;28;46054;-81
2023/06/10 07:25:04;;;;;;;;;6.00;6.00;;;;;;;;5053448;28;45610;-80
2023/06/10 07:27:29;;;;;;;;;6.00;6.00;;;;;;;;5052160;28;45508;-82
2023/06/10 07:29:55;;;;;;;;;6.00;4.50;;;;;;;;5046655;28;45944;-82
2023/06/10 07:32:22;;;;;;;;;5.50;5.50;;;;;;;;5052055;28;45345;-81
2023/06/10 07:34:50;;;;;;;;;13.00;13.00;;;;;;;;5052221;28;45569;-82
2023/06/10 07:37:16;;;;;;;;;4.50;4.50;;;;;;;;5075056;27;46143;-82
2023/06/10 07:39:43;;;;;;;;;2.00;2.00;;;;;;;;5055680;28;46462;-83
2023/06/10 07:42:08;;;;;;;;;4.75;3.75;;;;;;;;5052831;28;45666;-80
2023/06/10 07:44:33;;;;;;;;;4.00;4.00;;;;;;;;5050945;28;45694;-79
2023/06/10 07:46:58;;;;;;;;;6.75;5.75;;;;;;;;5048774;28;46137;-78
2023/06/10 07:49:24;;;;;;;;;6.67;6.00;;;;;;;;5048472;28;45631;-78
2023/06/10 07:51:50;;;;;;;;;6.00;6.00;;;;;;;;5042786;28;45579;-79
2023/06/10 07:54:15;;;;;;;;;8.00;6.67;;;;;;;;5053111;28;45386;-80
2023/06/10 07:56:40;;;;;;;;;4.67;4.67;;;;;;;;5048782;28;45737;-79
2023/06/10 07:59:06;;;;;;;;;7.67;6.00;;;;;;;;5046100;28;47218;-83
2023/06/10 08:01:32;;;;;;;;;6.67;5.67;;;;;;;;5056184;28;45539;-81
2023/06/10 08:04:01;;;;;;;;;6.00;5.00;;;;;;;;5050137;28;45547;-80
2023/06/10 08:06:26;;;;;;;;;6.33;4.00;;;;;;;;5052632;27;46073;-79
2023/06/10 08:08:51;;;;;;;;;4.33;3.00;;;;;;;;5047060;28;46083;-80
2023/06/10 08:11:17;;;;;;;;;7.00;7.00;;;;;;;;5052350;28;45833;-81
2023/06/10 08:13:42;;;;;;;;;7.00;5.00;;;;;;;;5058343;28;45360;-80
2023/06/10 08:16:07;;;;;;;;;4.33;4.33;;;;;;;;5055766;28;45734;-80
2023/06/10 08:18:33;;;;;;;;;8.33;5.67;;;;;;;;5060929;27;45649;-80
2023/06/10 08:20:58;;;;;;;;;7.33;7.33;;;;;;;;5065098;27;45457;-80
2023/06/10 08:23:24;;;;;;;;;5.00;5.00;;;;;;;;5053435;28;45926;-80
2023/06/10 08:25:49;;;;;;;;;5.33;5.33;;;;;;;;5059504;28;45473;-83
2023/06/10 08:28:14;;;;;;;;;3.00;3.00;;;;;;;;5054407;28;46469;-83
2023/06/10 08:30:40;;;;;;;;;7.00;6.00;;;;;;;;5061681;28;45939;-82
2023/06/10 08:33:05;;;;;;;;;4.50;4.50;;;;;;;;5054469;28;45844;-79
2023/06/10 08:35:30;;;;;;;;;5.67;4.33;;;;;;;;5052535;28;45628;-79
2023/06/10 08:37:55;;;;;;;;;5.00;5.00;;;;;;;;5051620;27;46802;-82
2023/06/10 08:40:21;;;;;;;;;7.00;7.00;;;;;;;;5053980;28;45814;-79
2023/06/10 08:42:52;;;;;;;;;6.33;6.33;;;;;;;;5054089;28;46039;-82
2023/06/10 08:45:18;;;;;;;;;6.67;4.00;;;;;;;;5055243;28;45797;-82
2023/06/10 08:47:45;;;;;;;;;4.67;4.00;;;;;;;;5055257;28;47171;-80
2023/06/10 08:50:11;;;;;;;;;8.00;6.00;;;;;;;;5053380;28;45785;-79
2023/06/10 08:52:39;;;;;;;;;6.00;6.00;;;;;;;;5051008;28;45446;-79
2023/06/10 08:55:15;;;;;;;;;9.67;9.00;;;;;;;;5048109;28;46048;-81
2023/06/10 08:57:41;;;;;;;;;7.00;7.00;;;;;;;;5040978;28;45529;-77
2023/06/10 09:00:07;;;;;;;;;7.33;6.00;;;;;;;;5050679;27;45591;-78
2023/06/10 09:02:35;;;;;;;;;4.67;3.00;;;;;;;;5053340;28;45738;-78
2023/06/10 09:05:00;;;;;;;;;7.00;7.00;;;;;;;;5048850;28;45934;-80
2023/06/10 09:07:25;;;;;;;;;6.33;6.33;;;;;;;;5046309;28;45473;-78
2023/06/10 09:09:53;;;;;;;;;7.33;7.33;;;;;;;;5053565;28;45465;-82
2023/06/10 09:12:19;;;;;;;;;6.67;6.67;;;;;;;;5050834;28;45485;-78
2023/06/10 09:14:44;;;;;;;;;5.67;5.00;;;;;;;;5053188;27;45790;-79
2023/06/10 09:17:10;;;;;;;;;5.67;5.67;;;;;;;;5052839;27;45822;-77
2023/06/10 09:19:36;;;;;;;;;4.67;4.33;;;;;;;;5044882;28;46446;-79
2023/06/10 09:22:02;;;;;;;;;3.67;3.67;;;;;;;;5046339;28;45960;-77
2023/06/10 09:24:27;;;;;;;;;6.67;5.33;;;;;;;;5048775;28;45517;-80
2023/06/10 09:27:08;;;;;;;;;7.00;7.00;;;;;;;;5043680;28;46995;-80
2023/06/10 09:29:47;;;;;;;;;6.67;6.67;;;;;;;;5071745;27;46935;-79
2023/06/10 09:32:13;;;;;;;;;5.25;5.25;;;;;;;;5052350;28;45625;-80
2023/06/10 09:34:46;;;;;;;;;5.33;5.33;;;;;;;;5053103;28;45432;-78
2023/06/10 09:37:20;;;;;;;;;7.00;5.00;;;;;;;;5055362;28;47131;-80
2023/06/10 09:40:00;;;;;;;;;5.00;5.00;;;;;;;;5055837;28;45670;-79
2023/06/10 09:42:25;;;;;;;;;6.00;5.00;;;;;;;;5046375;28;47743;-80
2023/06/10 09:44:51;;;;;;;;;7.33;5.00;;;;;;;;5047372;28;45482;-79
2023/06/10 09:47:23;;;;;;;;;7.00;5.33;;;;;;;;5053269;28;45503;-82
2023/06/10 09:49:55;;;;;;;;;5.00;5.00;;;;;;;;5057856;28;45525;-84
2023/06/10 09:52:27;;;;;;;;;6.67;5.67;;;;;;;;5055553;28;45809;-80
2023/06/10 09:54:53;;;;;;;;;5.33;4.67;;;;;;;;5065452;28;45538;-83
2023/06/10 09:57:22;;;;;;;;;4.67;4.67;;;;;;;;5057255;28;45927;-81
2023/06/10 10:00:08;;;;;;;;;;;;;;;;;;;;;
2023/06/10 10:02:47;;;;;;;;;4.00;4.00;;;;;;;;5063757;28;67814;-83
2023/06/10 10:05:14;;;;;;;;;8.33;7.00;;;;;;;;5067737;28;46600;-81
2023/06/10 10:07:40;;;;;;;;;7.67;6.00;;;;;;;;5063063;27;45442;-80
2023/06/10 10:10:07;;;;;;;;;7.00;6.00;;;;;;;;5051104;28;45441;-84
2023/06/10 10:12:32;;;;;;;;;4.33;4.33;;;;;;;;5065203;27;45521;-82
2023/06/10 10:14:58;;;;;;;;;5.67;5.00;;;;;;;;5052504;28;45980;-80
2023/06/10 10:17:24;;;;;;;;;4.00;4.00;;;;;;;;5052213;28;47088;-80
2023/06/10 10:19:57;;;;;;;;;5.25;5.25;;;;;;;;5058542;28;45680;-81
2023/06/10 10:22:29;;;;;;;;;3.33;3.33;;;;;;;;5061339;28;45883;-81
2023/06/10 10:24:56;;;;;;;;;4.00;4.00;;;;;;;;5057446;28;45746;-81
2023/06/10 10:27:26;;;;;;;;;5.67;4.67;;;;;;;;5063820;28;45619;-79
2023/06/10 10:29:56;;;;;;;;;4.33;4.33;;;;;;;;5056495;28;45376;-80
2023/06/10 10:32:26;;;;;;;;;5.33;5.33;;;;;;;;5064463;28;45635;-80
2023/06/10 10:34:52;;;;;;;;;9.00;6.33;;;;;;;;5055605;27;45512;-81
2023/06/10 10:37:17;;;;;;;;;5.67;5.67;;;;;;;;5062157;27;46751;-83
2023/06/10 10:39:43;;;;;;;;;6.67;5.67;;;;;;;;5054131;28;45756;-82
2023/06/10 10:42:11;;;;;;;;;4.25;4.25;;;;;;;;5056082;28;45488;-83
2023/06/10 10:44:40;;;;;;;;;5.33;4.67;;;;;;;;5063199;28;45857;-81
2023/06/10 10:47:08;;;;;;;;;8.00;8.00;;;;;;;;5051776;27;46568;-80
2023/06/10 10:49:35;;;;;;;;;9.33;8.33;;;;;;;;5063670;28;45751;-82
2023/06/10 10:52:11;;;;;;;;;4.75;4.75;;;;;;;;5062266;27;45607;-80
2023/06/10 10:54:37;;;;;;;;;5.33;5.33;;;;;;;;5056405;28;45583;-82
2023/06/10 10:57:10;;;;;;;;;6.25;6.25;;;;;;;;5042691;28;45569;-84
2023/06/10 10:59:45;;;;;;;;;7.25;6.50;;;;;;;;5056810;28;45902;-81
2023/06/10 11:02:10;;;;;;;;;6.75;6.75;;;;;;;;5054530;28;45870;-84
2023/06/10 11:04:35;;;;;;;;;7.75;6.75;;;;;;;;5051472;28;46358;-83
2023/06/10 11:07:07;;;;;;;;;7.25;5.75;;;;;;;;5063410;28;45637;-87
2023/06/10 11:09:34;;;;;;;;;7.75;7.75;;;;;;;;5061982;28;45555;-84
2023/06/10 11:12:04;;;;;;;;;6.50;5.75;;;;;;;;5058325;28;45463;-81
2023/06/10 11:14:30;;;;;;;;;9.50;5.75;;;;;;;;5059003;28;45539;-84
2023/06/10 11:16:59;;;;;;;;;8.50;7.25;;;;;;;;5060990;28;47000;-83
2023/06/10 11:19:40;;;;;;;;;9.00;7.00;;;;;;;;5056640;28;45790;-83
2023/06/10 11:22:07;;;;;;;;;7.25;7.00;;;;;;;;5048368;28;44759;-83
2023/06/10 11:24:38;;;;;;;;;7.33;6.33;;;;;;;;5059696;28;45631;-82
2023/06/10 11:27:19;;;;;;;;;8.50;7.50;;;;;;;;5055702;28;45756;-82
2023/06/10 11:30:00;;;;;;;;;8.25;8.25;;;;;;;;5057638;28;45781;-81
2023/06/10 11:32:36;;;;;;;;;7.00;7.00;;;;;;;;5048464;28;45111;-82
2023/06/10 11:35:07;;;;;;;;;6.67;6.67;;;;;;;;5073605;27;45507;-83
2023/06/10 11:37:38;;;;;;;;;9.00;9.00;;;;;;;;5062741;28;45982;-83
2023/06/10 11:40:08;;;;;;;;;7.25;7.25;;;;;;;;5067086;27;45461;-83
2023/06/10 11:42:38;;;;;;;;;8.00;8.00;;;;;;;;5057016;28;45493;-83
2023/06/10 11:45:08;;;;;;;;;9.67;8.67;;;;;;;;5050106;28;45794;-81
2023/06/10 11:47:33;;;;;;;;;7.75;7.75;;;;;;;;5053554;28;47752;-82
2023/06/10 11:49:58;;;;;;;;;8.00;7.75;;;;;;;;5062574;27;45505;-81
2023/06/10 11:52:27;;;;;;;;;10.00;9.25;;;;;;;;5064267;28;45466;-82
2023/06/10 11:54:54;;;;;;;;;9.25;8.25;;;;;;;;5061373;28;45497;-84
2023/06/10 11:57:20;;;;;;;;;6.75;6.75;;;;;;;;5064966;28;45461;-82
2023/06/10 11:59:45;;;;;;;;;10.75;8.25;;;;;;;;5060421;28;45463;-84
2023/06/10 12:02:17;;;;;;;;;8.25;8.25;;;;;;;;5064805;28;45960;-81
2023/06/10 12:04:43;;;;;;;;;10.00;8.00;;;;;;;;5063269;28;46045;-82
2023/06/10 12:07:16;;;;;;;;;7.25;7.25;;;;;;;;5065553;28;46154;-83
2023/06/10 12:09:42;;;;;;;;;5.75;5.50;;;;;;;;5063544;28;45400;-86
2023/06/10 12:12:08;;;;;;;;;6.00;6.00;;;;;;;;5069264;28;45527;-83
2023/06/10 12:14:54;;;;;;;;;6.50;6.50;;;;;;;;5066921;28;46487;-83
2023/06/10 12:17:25;;;;;;;;;8.67;8.67;;;;;;;;5082072;27;45788;-83
2023/06/10 12:19:51;;;;;;;;;9.00;9.00;;;;;;;;5068455;28;45211;-80
2023/06/10 12:22:19;;;;;;;;;7.67;7.67;;;;;;;;5067988;28;45762;-83
2023/06/10 12:25:02;;;;;;;;;9.67;8.33;;;;;;;;5065188;28;45548;-83
2023/06/10 12:27:30;;;;;;;;;8.25;7.25;;;;;;;;5060221;28;46539;-83
2023/06/10 12:29:55;;;;;;;;;7.00;6.00;;;;;;;;5063335;28;45423;-85
2023/06/10 12:32:26;;;;;;;;;8.00;7.00;;;;;;;;5061067;28;45437;-83
2023/06/10 12:35:03;;;;;;;;;6.00;6.00;;;;;;;;5059724;28;45399;-82
2023/06/10 12:37:28;;;;;;;;;6.75;6.75;;;;;;;;5060829;28;45612;-84
2023/06/10 12:39:54;;;;;;;;;7.67;7.67;;;;;;;;5069971;28;45447;-86
2023/06/10 12:42:23;;;;;;;;;5.25;5.25;;;;;;;;5062697;28;45482;-83
2023/06/10 12:44:52;;;;;;;;;9.25;8.00;;;;;;;;5061459;28;46158;-84
2023/06/10 12:47:18;;;;;;;;;6.75;6.25;;;;;;;;5065666;28;45972;-82
2023/06/10 12:49:43;;;;;;;;;12.00;11.00;;;;;;;;5065402;28;45501;-82
2023/06/10 12:52:13;;;;;;;;;8.00;8.00;;;;;;;;5065479;28;45543;-84
2023/06/10 12:54:50;;;;;;;;;7.33;7.33;;;;;;;;5058168;28;45476;-83
2023/06/10 12:57:22;;;;;;;;;7.75;7.50;;;;;;;;5059318;28;45538;-84
2023/06/10 12:59:52;;;;;;;;;9.00;6.67;;;;;;;;5060842;28;45453;-84
2023/06/10 13:02:23;;;;;;;;;7.33;7.33;;;;;;;;5057283;28;45496;-81
2023/06/10 13:04:49;;;;;;;;;7.75;7.75;;;;;;;;5062605;28;45465;-82
2023/06/10 13:07:15;;;;;;;;;7.00;6.25;;;;;;;;5060514;28;45422;-81
2023/06/10 13:09:40;;;;;;;;;8.50;6.25;;;;;;;;5062968;28;45667;-83
2023/06/10 13:12:09;;;;;;;;;9.33;7.67;;;;;;;;5062926;28;45806;-84
2023/06/10 13:14:41;;;;;;;;;8.25;8.25;;;;;;;;5061443;28;45670;-82
2023/06/10 13:17:07;;;;;;;;;9.67;7.00;;;;;;;;5057151;28;45913;-84
2023/06/10 13:19:35;;;;;;;;;8.00;7.50;;;;;;;;5059529;28;45679;-82
2023/06/10 13:22:01;;;;;;;;;8.75;7.75;;;;;;;;5058528;28;45417;-82
2023/06/10 13:24:29;;;;;;;;;6.67;6.67;;;;;;;;5044066;28;45848;-82
2023/06/10 13:26:56;;;;;;;;;8.50;8.50;;;;;;;;5044578;28;46124;-83
2023/06/10 13:32:25;;;;;;;;;6.33;6.33;;;;;;;;5057888;28;45246;-88
2023/06/10 13:34:51;;;;;;;;;6.25;6.25;;;;;;;;5061010;28;45604;-80
2023/06/10 13:37:19;;;;;;;;;8.67;8.67;;;;;;;;5050729;28;45472;-83
2023/06/10 13:39:48;;;;;;;;;9.33;9.00;;;;;;;;5047012;28;45498;-81
2023/06/10 13:42:13;;;;;;;;;9.33;8.33;;;;;;;;5052202;28;45525;-83
2023/06/10 13:44:39;;;;;;;;;8.00;7.50;;;;;;;;5055445;28;46505;-83
2023/06/10 13:47:04;;;;;;;;;8.67;8.00;;;;;;;;5054957;28;46885;-81
2023/06/10 13:49:30;;;;;;;;;8.33;7.67;;;;;;;;5059391;28;45385;-82
2023/06/10 13:51:55;;;;;;;;;7.75;7.75;;;;;;;;5059728;27;45501;-82
2023/06/10 13:54:21;;;;;;;;;8.33;7.33;;;;;;;;5059442;28;45484;-85
2023/06/10 13:56:46;;;;;;;;;9.33;7.00;;;;;;;;5055411;28;45201;-83
2023/06/10 13:59:12;;;;;;;;;8.00;7.67;;;;;;;;5051322;28;45447;-83
2023/06/10 14:01:37;;;;;;;;;7.50;6.75;;;;;;;;5059056;28;45453;-80
2023/06/10 14:04:02;;;;;;;;;6.75;6.75;;;;;;;;5054965;28;45725;-81
2023/06/10 14:06:28;;;;;;;;;8.33;7.00;;;;;;;;5053029;28;46586;-81
2023/06/10 14:09:13;;;;;;;;;9.00;8.00;;;;;;;;5052331;28;45439;-85
2023/06/10 14:11:38;;;;;;;;;8.00;7.00;;;;;;;;5053811;28;45876;-83
2023/06/10 14:14:04;;;;;;;;;8.67;8.67;;;;;;;;5048925;28;45797;-83
2023/06/10 14:16:29;;;;;;;;;5.00;5.00;;;;;;;;5053813;28;46565;-84
2023/06/10 14:18:55;;;;;;;;;8.00;8.00;;;;;;;;5047590;28;45725;-82
2023/06/10 14:21:20;;;;;;;;;6.67;6.33;;;;;;;;5043479;28;45311;-81
2023/06/10 14:23:45;;;;;;;;;12.00;9.00;;;;;;;;5051610;28;47073;-80
2023/06/10 14:26:16;;;;;;;;;10.00;9.00;;;;;;;;5056384;28;45562;-85
2023/06/10 14:28:41;;;;;;;;;11.67;9.00;;;;;;;;5056523;28;45827;-80
2023/06/10 14:31:07;;;;;;;;;8.67;6.33;;;;;;;;5055886;28;45832;-83
2023/06/10 14:33:34;;;;;;;;;8.00;8.00;;;;;;;;5046671;28;45806;-80
2023/06/10 14:35:59;;;;;;;;;7.00;7.00;;;;;;;;5052481;28;46946;-82
2023/06/10 14:38:25;;;;;;;;;8.00;8.00;;;;;;;;5038375;28;45528;-83